sensor_id;sensor_type;location;lat;lon;timestamp;temperature;humidity
439;DHT22;206;48.782;9.252;2023-02-03T00:01:01;8.20;47.60
439;DHT22;206;48.782;9.252;2023-02-03T00:03:27;8.20;48.00
439;DHT22;206;48.782;9.252;2023-02-03T00:05:53;8.20;47.90
439;DHT22;206;48.782;9.252;2023-02-03T00:08:20;8.20;48.00
439;DHT22;206;48.782;9.252;2023-02-03T00:10:47;8.20;48.10
439;DHT22;206;48.782;9.252;2023-02-03T00:13:13;8.20;48.10
439;DHT22;206;48.782;9.252;2023-02-03T00:15:38;8.30;48.20
439;DHT22;206;48.782;9.252;2023-02-03T00:18:04;8.30;47.70
439;DHT22;206;48.782;9.252;2023-02-03T00:20:30;8.20;47.60
439;DHT22;206;48.782;9.252;2023-02-03T00:23:05;8.20;47.80
439;DHT22;206;48.782;9.252;2023-02-03T00:25:31;8.10;48.00
439;DHT22;206;48.782;9.252;2023-02-03T00:27:57;8.10;48.00
439;DHT22;206;48.782;9.252;2023-02-03T00:30:23;8.00;48.30
439;DHT22;206;48.782;9.252;2023-02-03T00:32:48;8.10;48.30
439;DHT22;206;48.782;9.252;2023-02-03T00:35:14;8.10;48.00
439;DHT22;206;48.782;9.252;2023-02-03T00:37:39;8.10;48.00
439;DHT22;206;48.782;9.252;2023-02-03T00:40:05;8.20;48.00
439;DHT22;206;48.782;9.252;2023-02-03T00:42:33;8.20;48.00
439;DHT22;206;48.782;9.252;2023-02-03T00:44:59;8.10;48.00
439;DHT22;206;48.782;9.252;2023-02-03T00:47:25;8.10;48.00
439;DHT22;206;48.782;9.252;2023-02-03T00:49:51;8.10;48.00
439;DHT22;206;48.782;9.252;2023-02-03T00:52:16;8.10;48.00
439;DHT22;206;48.782;9.252;2023-02-03T00:54:42;8.10;48.00
439;DHT22;206;48.782;9.252;2023-02-03T00:57:08;8.10;48.00
439;DHT22;206;48.782;9.252;2023-02-03T00:59:33;8.10;48.40
439;DHT22;206;48.782;9.252;2023-02-03T01:01:59;8.10;48.60
439;DHT22;206;48.782;9.252;2023-02-03T01:04:25;8.10;48.80
439;DHT22;206;48.782;9.252;2023-02-03T01:06:50;8.10;48.60
439;DHT22;206;48.782;9.252;2023-02-03T01:09:20;8.10;48.40
439;DHT22;206;48.782;9.252;2023-02-03T01:11:46;8.10;48.70
439;DHT22;206;48.782;9.252;2023-02-03T01:14:11;8.10;48.60
439;DHT22;206;48.782;9.252;2023-02-03T01:16:37;8.10;48.80
439;DHT22;206;48.782;9.252;2023-02-03T01:19:03;8.10;48.90
439;DHT22;206;48.782;9.252;2023-02-03T01:21:29;8.10;49.20
439;DHT22;206;48.782;9.252;2023-02-03T01:23:55;8.10;49.10
439;DHT22;206;48.782;9.252;2023-02-03T01:26:22;8.20;49.30
439;DHT22;206;48.782;9.252;2023-02-03T01:28:52;8.20;49.40
439;DHT22;206;48.782;9.252;2023-02-03T01:34:14;8.20;49.50
439;DHT22;206;48.782;9.252;2023-02-03T01:36:43;8.20;49.70
439;DHT22;206;48.782;9.252;2023-02-03T01:39:11;8.20;49.60
439;DHT22;206;48.782;9.252;2023-02-03T01:41:38;8.20;49.20
439;DHT22;206;48.782;9.252;2023-02-03T01:44:34;8.20;49.00
439;DHT22;206;48.782;9.252;2023-02-03T01:47:00;8.30;49.00
439;DHT22;206;48.782;9.252;2023-02-03T01:49:32;8.30;48.90
439;DHT22;206;48.782;9.252;2023-02-03T01:51:59;8.30;49.10
439;DHT22;206;48.782;9.252;2023-02-03T01:54:28;8.30;49.00
439;DHT22;206;48.782;9.252;2023-02-03T01:57:08;8.20;49.30
439;DHT22;206;48.782;9.252;2023-02-03T01:59:36;8.20;49.40
439;DHT22;206;48.782;9.252;2023-02-03T02:02:03;8.20;49.40
439;DHT22;206;48.782;9.252;2023-02-03T02:04:46;8.20;49.60
439;DHT22;206;48.782;9.252;2023-02-03T02:07:15;8.20;49.80
439;DHT22;206;48.782;9.252;2023-02-03T02:09:41;8.20;50.00
439;DHT22;206;48.782;9.252;2023-02-03T02:12:12;8.20;49.90
439;DHT22;206;48.782;9.252;2023-02-03T02:14:38;8.20;50.40
439;DHT22;206;48.782;9.252;2023-02-03T02:17:19;8.10;51.10
439;DHT22;206;48.782;9.252;2023-02-03T02:30:38;8.10;51.30
439;DHT22;206;48.782;9.252;2023-02-03T02:33:17;8.00;51.60
439;DHT22;206;48.782;9.252;2023-02-03T02:35:59;7.90;52.40
439;DHT22;206;48.782;9.252;2023-02-03T02:43:49;7.80;52.70
439;DHT22;206;48.782;9.252;2023-02-03T02:46:24;7.80;53.10
439;DHT22;206;48.782;9.252;2023-02-03T02:51:56;7.80;53.50
439;DHT22;206;48.782;9.252;2023-02-03T02:54:25;7.70;54.20
439;DHT22;206;48.782;9.252;2023-02-03T02:56:55;7.70;54.40
439;DHT22;206;48.782;9.252;2023-02-03T02:59:22;7.70;54.70
439;DHT22;206;48.782;9.252;2023-02-03T03:01:47;7.70;54.70
439;DHT22;206;48.782;9.252;2023-02-03T03:04:16;7.70;54.70
439;DHT22;206;48.782;9.252;2023-02-03T03:06:46;7.70;54.70
439;DHT22;206;48.782;9.252;2023-02-03T03:09:25;7.80;54.80
439;DHT22;206;48.782;9.252;2023-02-03T03:12:10;7.80;53.90
439;DHT22;206;48.782;9.252;2023-02-03T03:14:41;7.90;53.80
439;DHT22;206;48.782;9.252;2023-02-03T03:17:10;7.90;53.40
439;DHT22;206;48.782;9.252;2023-02-03T03:19:45;8.00;53.20
439;DHT22;206;48.782;9.252;2023-02-03T03:22:14;8.00;52.70
439;DHT22;206;48.782;9.252;2023-02-03T03:24:51;8.00;52.70
439;DHT22;206;48.782;9.252;2023-02-03T03:27:25;8.10;52.70
439;DHT22;206;48.782;9.252;2023-02-03T03:29:59;8.10;52.00
439;DHT22;206;48.782;9.252;2023-02-03T03:32:25;8.10;52.10
439;DHT22;206;48.782;9.252;2023-02-03T03:34:53;8.10;52.30
439;DHT22;206;48.782;9.252;2023-02-03T03:37:35;8.10;51.30
439;DHT22;206;48.782;9.252;2023-02-03T03:40:08;8.20;51.30
439;DHT22;206;48.782;9.252;2023-02-03T03:42:40;8.10;50.80
439;DHT22;206;48.782;9.252;2023-02-03T03:45:18;8.20;51.60
439;DHT22;206;48.782;9.252;2023-02-03T03:48:08;8.20;51.40
439;DHT22;206;48.782;9.252;2023-02-03T03:50:40;8.20;51.20
439;DHT22;206;48.782;9.252;2023-02-03T03:53:08;8.30;51.20
439;DHT22;206;48.782;9.252;2023-02-03T03:55:35;8.30;50.90
439;DHT22;206;48.782;9.252;2023-02-03T03:58:08;8.30;50.30
439;DHT22;206;48.782;9.252;2023-02-03T04:00:36;8.40;50.10
439;DHT22;206;48.782;9.252;2023-02-03T04:03:37;8.40;49.80
439;DHT22;206;48.782;9.252;2023-02-03T04:06:03;8.40;49.80
439;DHT22;206;48.782;9.252;2023-02-03T04:08:29;8.50;49.70
439;DHT22;206;48.782;9.252;2023-02-03T04:10:55;8.50;50.20
439;DHT22;206;48.782;9.252;2023-02-03T04:13:20;8.50;50.50
439;DHT22;206;48.782;9.252;2023-02-03T04:15:46;8.50;50.80
439;DHT22;206;48.782;9.252;2023-02-03T04:18:13;8.60;51.30
439;DHT22;206;48.782;9.252;2023-02-03T04:20:39;8.50;52.30
439;DHT22;206;48.782;9.252;2023-02-03T04:23:05;8.50;51.70
439;DHT22;206;48.782;9.252;2023-02-03T04:25:31;8.50;52.00
439;DHT22;206;48.782;9.252;2023-02-03T04:27:57;8.40;53.00
439;DHT22;206;48.782;9.252;2023-02-03T04:30:22;8.40;53.80
439;DHT22;206;48.782;9.252;2023-02-03T04:32:48;8.40;53.30
439;DHT22;206;48.782;9.252;2023-02-03T04:35:14;8.30;54.20
439;DHT22;206;48.782;9.252;2023-02-03T04:37:40;8.30;54.90
439;DHT22;206;48.782;9.252;2023-02-03T04:40:06;8.30;55.10
439;DHT22;206;48.782;9.252;2023-02-03T04:42:32;8.30;56.30
439;DHT22;206;48.782;9.252;2023-02-03T04:44:57;8.20;56.90
439;DHT22;206;48.782;9.252;2023-02-03T04:47:23;8.20;56.70
439;DHT22;206;48.782;9.252;2023-02-03T04:49:50;8.20;56.90
439;DHT22;206;48.782;9.252;2023-02-03T04:52:15;8.20;57.50
439;DHT22;206;48.782;9.252;2023-02-03T04:54:41;8.10;57.60
439;DHT22;206;48.782;9.252;2023-02-03T04:57:06;8.00;58.70
439;DHT22;206;48.782;9.252;2023-02-03T04:59:32;8.00;59.00
439;DHT22;206;48.782;9.252;2023-02-03T05:02:00;8.10;59.90
439;DHT22;206;48.782;9.252;2023-02-03T05:04:25;8.00;59.60
439;DHT22;206;48.782;9.252;2023-02-03T05:06:51;8.00;59.60
439;DHT22;206;48.782;9.252;2023-02-03T05:09:16;8.00;59.80
439;DHT22;206;48.782;9.252;2023-02-03T05:11:42;8.00;59.70
439;DHT22;206;48.782;9.252;2023-02-03T05:14:08;8.00;60.30
439;DHT22;206;48.782;9.252;2023-02-03T05:16:33;8.00;60.50
439;DHT22;206;48.782;9.252;2023-02-03T05:18:59;8.00;60.60
439;DHT22;206;48.782;9.252;2023-02-03T05:21:26;8.00;61.40
439;DHT22;206;48.782;9.252;2023-02-03T05:24:01;8.00;60.70
439;DHT22;206;48.782;9.252;2023-02-03T05:26:31;8.00;60.90
439;DHT22;206;48.782;9.252;2023-02-03T05:28:57;8.00;61.50
439;DHT22;206;48.782;9.252;2023-02-03T05:31:22;8.00;61.70
439;DHT22;206;48.782;9.252;2023-02-03T05:33:48;8.00;62.10
439;DHT22;206;48.782;9.252;2023-02-03T05:36:13;8.00;62.10
439;DHT22;206;48.782;9.252;2023-02-03T05:38:39;8.00;62.10
439;DHT22;206;48.782;9.252;2023-02-03T05:41:08;8.10;62.20
439;DHT22;206;48.782;9.252;2023-02-03T05:43:52;8.00;62.10
439;DHT22;206;48.782;9.252;2023-02-03T05:46:18;8.00;62.10
439;DHT22;206;48.782;9.252;2023-02-03T05:48:44;8.00;62.10
439;DHT22;206;48.782;9.252;2023-02-03T05:51:10;8.10;62.80
439;DHT22;206;48.782;9.252;2023-02-03T05:53:36;8.10;62.90
439;DHT22;206;48.782;9.252;2023-02-03T05:56:02;8.10;62.80
439;DHT22;206;48.782;9.252;2023-02-03T05:58:27;8.10;62.10
439;DHT22;206;48.782;9.252;2023-02-03T06:00:53;8.10;62.10
439;DHT22;206;48.782;9.252;2023-02-03T06:03:18;8.20;62.00
439;DHT22;206;48.782;9.252;2023-02-03T06:05:44;8.20;61.10
439;DHT22;206;48.782;9.252;2023-02-03T06:08:10;8.20;60.90
439;DHT22;206;48.782;9.252;2023-02-03T06:10:35;8.30;60.70
439;DHT22;206;48.782;9.252;2023-02-03T06:13:14;8.30;60.60
439;DHT22;206;48.782;9.252;2023-02-03T06:15:40;8.30;60.00
439;DHT22;206;48.782;9.252;2023-02-03T06:18:06;8.30;59.70
439;DHT22;206;48.782;9.252;2023-02-03T06:20:32;8.40;59.20
439;DHT22;206;48.782;9.252;2023-02-03T06:22:58;8.30;59.30
439;DHT22;206;48.782;9.252;2023-02-03T06:25:23;8.20;58.60
439;DHT22;206;48.782;9.252;2023-02-03T06:27:49;8.20;58.90
439;DHT22;206;48.782;9.252;2023-02-03T06:30:16;8.20;58.90
439;DHT22;206;48.782;9.252;2023-02-03T06:32:41;8.20;58.00
439;DHT22;206;48.782;9.252;2023-02-03T06:35:07;8.30;59.10
439;DHT22;206;48.782;9.252;2023-02-03T06:37:33;8.30;58.80
439;DHT22;206;48.782;9.252;2023-02-03T06:40:00;8.30;58.30
439;DHT22;206;48.782;9.252;2023-02-03T06:42:26;8.30;57.80
439;DHT22;206;48.782;9.252;2023-02-03T06:44:52;8.30;57.60
439;DHT22;206;48.782;9.252;2023-02-03T06:47:18;8.30;57.60
439;DHT22;206;48.782;9.252;2023-02-03T06:49:43;8.20;57.50
439;DHT22;206;48.782;9.252;2023-02-03T06:52:09;8.20;59.10
439;DHT22;206;48.782;9.252;2023-02-03T06:54:34;8.30;59.30
439;DHT22;206;48.782;9.252;2023-02-03T06:57:00;8.30;58.40
439;DHT22;206;48.782;9.252;2023-02-03T06:59:25;8.20;58.90
439;DHT22;206;48.782;9.252;2023-02-03T07:01:51;8.20;58.80
439;DHT22;206;48.782;9.252;2023-02-03T07:04:17;8.20;59.30
439;DHT22;206;48.782;9.252;2023-02-03T07:06:43;8.20;59.10
439;DHT22;206;48.782;9.252;2023-02-03T07:09:08;8.20;59.10
439;DHT22;206;48.782;9.252;2023-02-03T07:11:34;8.10;58.90
439;DHT22;206;48.782;9.252;2023-02-03T07:13:59;8.10;58.70
439;DHT22;206;48.782;9.252;2023-02-03T07:16:25;8.10;58.60
439;DHT22;206;48.782;9.252;2023-02-03T07:18:52;8.00;58.90
439;DHT22;206;48.782;9.252;2023-02-03T07:21:17;8.00;59.90
439;DHT22;206;48.782;9.252;2023-02-03T07:23:46;7.90;58.70
439;DHT22;206;48.782;9.252;2023-02-03T07:26:12;7.90;59.50
439;DHT22;206;48.782;9.252;2023-02-03T07:28:38;7.90;60.10
439;DHT22;206;48.782;9.252;2023-02-03T07:31:04;7.90;60.10
439;DHT22;206;48.782;9.252;2023-02-03T07:33:30;7.90;59.60
439;DHT22;206;48.782;9.252;2023-02-03T07:35:58;7.90;59.30
439;DHT22;206;48.782;9.252;2023-02-03T07:38:25;8.00;58.50
439;DHT22;206;48.782;9.252;2023-02-03T07:40:52;8.00;59.10
439;DHT22;206;48.782;9.252;2023-02-03T07:43:18;7.90;59.10
439;DHT22;206;48.782;9.252;2023-02-03T07:45:44;7.90;59.80
439;DHT22;206;48.782;9.252;2023-02-03T07:48:10;8.00;59.30
439;DHT22;206;48.782;9.252;2023-02-03T07:50:36;8.00;59.30
439;DHT22;206;48.782;9.252;2023-02-03T07:53:02;8.00;59.00
439;DHT22;206;48.782;9.252;2023-02-03T07:55:28;7.90;58.20
439;DHT22;206;48.782;9.252;2023-02-03T07:57:57;8.00;58.80
439;DHT22;206;48.782;9.252;2023-02-03T08:00:23;8.00;59.60
439;DHT22;206;48.782;9.252;2023-02-03T08:02:49;7.90;60.10
439;DHT22;206;48.782;9.252;2023-02-03T08:05:16;7.90;59.80
439;DHT22;206;48.782;9.252;2023-02-03T08:07:42;7.90;59.70
439;DHT22;206;48.782;9.252;2023-02-03T08:10:09;8.00;59.80
439;DHT22;206;48.782;9.252;2023-02-03T08:12:35;8.00;59.60
439;DHT22;206;48.782;9.252;2023-02-03T08:15:01;8.10;59.90
439;DHT22;206;48.782;9.252;2023-02-03T08:17:27;8.20;59.90
439;DHT22;206;48.782;9.252;2023-02-03T08:19:52;8.20;58.70
439;DHT22;206;48.782;9.252;2023-02-03T08:22:18;8.30;57.60
439;DHT22;206;48.782;9.252;2023-02-03T08:24:47;8.30;57.60
439;DHT22;206;48.782;9.252;2023-02-03T08:27:14;8.30;58.00
439;DHT22;206;48.782;9.252;2023-02-03T08:29:40;8.30;58.30
439;DHT22;206;48.782;9.252;2023-02-03T08:32:11;8.30;58.80
439;DHT22;206;48.782;9.252;2023-02-03T08:34:37;8.30;60.00
439;DHT22;206;48.782;9.252;2023-02-03T08:37:03;8.40;59.90
439;DHT22;206;48.782;9.252;2023-02-03T08:39:29;8.40;58.90
439;DHT22;206;48.782;9.252;2023-02-03T08:41:55;8.40;60.00
439;DHT22;206;48.782;9.252;2023-02-03T08:44:21;8.50;59.90
439;DHT22;206;48.782;9.252;2023-02-03T08:46:51;8.50;60.00
439;DHT22;206;48.782;9.252;2023-02-03T08:49:18;8.50;60.00
439;DHT22;206;48.782;9.252;2023-02-03T08:51:45;8.60;59.80
439;DHT22;206;48.782;9.252;2023-02-03T08:54:11;8.80;59.90
439;DHT22;206;48.782;9.252;2023-02-03T08:56:37;8.80;58.40
439;DHT22;206;48.782;9.252;2023-02-03T08:59:03;8.90;58.00
439;DHT22;206;48.782;9.252;2023-02-03T09:01:28;8.90;57.70
439;DHT22;206;48.782;9.252;2023-02-03T09:03:54;8.90;57.80
439;DHT22;206;48.782;9.252;2023-02-03T09:06:20;8.90;58.00
439;DHT22;206;48.782;9.252;2023-02-03T09:08:47;8.90;58.20
439;DHT22;206;48.782;9.252;2023-02-03T09:11:15;8.90;58.70
439;DHT22;206;48.782;9.252;2023-02-03T09:13:41;8.90;59.10
439;DHT22;206;48.782;9.252;2023-02-03T09:16:11;9.00;58.10
439;DHT22;206;48.782;9.252;2023-02-03T09:18:38;9.10;58.20
439;DHT22;206;48.782;9.252;2023-02-03T09:21:08;9.10;56.80
439;DHT22;206;48.782;9.252;2023-02-03T09:23:36;9.20;57.10
439;DHT22;206;48.782;9.252;2023-02-03T09:26:06;9.20;57.50
439;DHT22;206;48.782;9.252;2023-02-03T09:28:32;9.20;56.40
439;DHT22;206;48.782;9.252;2023-02-03T09:31:05;9.30;56.80
439;DHT22;206;48.782;9.252;2023-02-03T09:33:34;9.40;56.30
439;DHT22;206;48.782;9.252;2023-02-03T09:36:00;9.50;56.60
439;DHT22;206;48.782;9.252;2023-02-03T09:38:26;9.70;55.80
439;DHT22;206;48.782;9.252;2023-02-03T09:40:56;9.90;54.20
439;DHT22;206;48.782;9.252;2023-02-03T09:46:25;10.00;52.20
439;DHT22;206;48.782;9.252;2023-02-03T09:48:58;10.10;51.50
439;DHT22;206;48.782;9.252;2023-02-03T09:51:33;10.20;50.30
439;DHT22;206;48.782;9.252;2023-02-03T09:54:06;10.20;50.60
439;DHT22;206;48.782;9.252;2023-02-03T09:56:38;10.20;51.30
439;DHT22;206;48.782;9.252;2023-02-03T09:59:05;10.10;49.70
439;DHT22;206;48.782;9.252;2023-02-03T10:01:45;10.00;50.90
439;DHT22;206;48.782;9.252;2023-02-03T10:19:12;10.30;51.50
439;DHT22;206;48.782;9.252;2023-02-03T10:21:44;10.40;50.90
439;DHT22;206;48.782;9.252;2023-02-03T10:27:27;10.50;49.60
439;DHT22;206;48.782;9.252;2023-02-03T10:29:59;10.60;49.10
439;DHT22;206;48.782;9.252;2023-02-03T10:32:25;10.70;49.20
439;DHT22;206;48.782;9.252;2023-02-03T10:34:52;10.70;48.40
439;DHT22;206;48.782;9.252;2023-02-03T10:37:37;10.70;46.80
439;DHT22;206;48.782;9.252;2023-02-03T10:40:09;10.70;47.60
439;DHT22;206;48.782;9.252;2023-02-03T10:42:36;10.60;47.50
439;DHT22;206;48.782;9.252;2023-02-03T10:45:20;10.60;47.10
439;DHT22;206;48.782;9.252;2023-02-03T10:47:56;10.70;48.20
439;DHT22;206;48.782;9.252;2023-02-03T10:50:24;10.60;47.70
439;DHT22;206;48.782;9.252;2023-02-03T10:53:18;10.60;47.50
439;DHT22;206;48.782;9.252;2023-02-03T10:55:47;10.70;47.90
439;DHT22;206;48.782;9.252;2023-02-03T10:58:21;10.80;47.30
439;DHT22;206;48.782;9.252;2023-02-03T11:00:54;11.00;47.10
439;DHT22;206;48.782;9.252;2023-02-03T11:03:25;11.30;45.60
439;DHT22;206;48.782;9.252;2023-02-03T11:06:18;11.60;45.20
439;DHT22;206;48.782;9.252;2023-02-03T11:08:46;11.80;40.90
439;DHT22;206;48.782;9.252;2023-02-03T11:11:20;11.90;41.20
439;DHT22;206;48.782;9.252;2023-02-03T11:13:55;12.00;40.60
439;DHT22;206;48.782;9.252;2023-02-03T11:16:25;11.90;39.20
439;DHT22;206;48.782;9.252;2023-02-03T11:18:57;11.80;40.10
439;DHT22;206;48.782;9.252;2023-02-03T11:29:31;11.20;42.10
439;DHT22;206;48.782;9.252;2023-02-03T11:32:02;11.10;43.30
439;DHT22;206;48.782;9.252;2023-02-03T11:34:36;10.90;43.50
439;DHT22;206;48.782;9.252;2023-02-03T11:37:26;10.80;46.60
439;DHT22;206;48.782;9.252;2023-02-03T11:47:47;10.90;45.30
439;DHT22;206;48.782;9.252;2023-02-03T11:50:28;10.90;44.50
439;DHT22;206;48.782;9.252;2023-02-03T11:56:16;10.90;43.80
439;DHT22;206;48.782;9.252;2023-02-03T11:59:09;10.80;44.40
439;DHT22;206;48.782;9.252;2023-02-03T12:04:17;10.70;44.40
439;DHT22;206;48.782;9.252;2023-02-03T12:09:58;10.70;45.60
439;DHT22;206;48.782;9.252;2023-02-03T12:12:50;10.80;45.00
439;DHT22;206;48.782;9.252;2023-02-03T12:18:19;10.80;45.40
439;DHT22;206;48.782;9.252;2023-02-03T12:29:15;10.70;44.30
439;DHT22;206;48.782;9.252;2023-02-03T12:31:44;10.80;44.40
439;DHT22;206;48.782;9.252;2023-02-03T12:34:21;10.70;44.40
439;DHT22;206;48.782;9.252;2023-02-03T12:36:54;10.70;44.30
439;DHT22;206;48.782;9.252;2023-02-03T12:39:51;10.70;44.30
439;DHT22;206;48.782;9.252;2023-02-03T12:42:26;10.60;45.00
439;DHT22;206;48.782;9.252;2023-02-03T12:45:05;10.60;44.80
439;DHT22;206;48.782;9.252;2023-02-03T12:47:42;10.60;45.50
439;DHT22;206;48.782;9.252;2023-02-03T12:52:52;10.40;41.70
439;DHT22;206;48.782;9.252;2023-02-03T12:55:39;10.30;41.80
439;DHT22;206;48.782;9.252;2023-02-03T12:58:38;10.30;41.90
439;DHT22;206;48.782;9.252;2023-02-03T13:01:21;10.20;40.40
439;DHT22;206;48.782;9.252;2023-02-03T13:09:36;10.10;40.10
439;DHT22;206;48.782;9.252;2023-02-03T13:14:39;10.00;40.70
439;DHT22;206;48.782;9.252;2023-02-03T13:17:28;10.10;40.60
439;DHT22;206;48.782;9.252;2023-02-03T13:20:01;10.20;40.50
439;DHT22;206;48.782;9.252;2023-02-03T13:22:28;10.20;40.70
439;DHT22;206;48.782;9.252;2023-02-03T13:33:19;10.20;40.70
439;DHT22;206;48.782;9.252;2023-02-03T13:41:45;10.00;40.90
439;DHT22;206;48.782;9.252;2023-02-03T13:44:15;10.10;40.50
439;DHT22;206;48.782;9.252;2023-02-03T13:46:47;10.00;40.60
439;DHT22;206;48.782;9.252;2023-02-03T13:49:28;10.00;39.80
439;DHT22;206;48.782;9.252;2023-02-03T13:51:55;10.00;40.60
439;DHT22;206;48.782;9.252;2023-02-03T13:54:27;9.90;40.90
439;DHT22;206;48.782;9.252;2023-02-03T13:57:03;10.00;40.90
439;DHT22;206;48.782;9.252;2023-02-03T13:59:42;10.00;40.30
439;DHT22;206;48.782;9.252;2023-02-03T14:07:34;10.10;40.70
439;DHT22;206;48.782;9.252;2023-02-03T14:12:38;10.00;40.90
439;DHT22;206;48.782;9.252;2023-02-03T14:23:16;9.90;42.50
439;DHT22;206;48.782;9.252;2023-02-03T14:25:47;9.90;42.30
439;DHT22;206;48.782;9.252;2023-02-03T14:28:21;10.00;41.10
439;DHT22;206;48.782;9.252;2023-02-03T14:34:02;10.00;41.90
439;DHT22;206;48.782;9.252;2023-02-03T14:36:33;10.00;41.30
439;DHT22;206;48.782;9.252;2023-02-03T14:50:30;10.00;41.70
439;DHT22;206;48.782;9.252;2023-02-03T14:53:20;10.00;41.40
439;DHT22;206;48.782;9.252;2023-02-03T14:58:42;10.00;42.10
439;DHT22;206;48.782;9.252;2023-02-03T15:01:26;9.90;43.50
439;DHT22;206;48.782;9.252;2023-02-03T15:06:49;9.90;43.60
439;DHT22;206;48.782;9.252;2023-02-03T15:09:34;9.90;44.00
439;DHT22;206;48.782;9.252;2023-02-03T15:12:01;9.90;44.40
439;DHT22;206;48.782;9.252;2023-02-03T15:14:29;9.90;44.40
439;DHT22;206;48.782;9.252;2023-02-03T15:17:03;9.90;44.30
439;DHT22;206;48.782;9.252;2023-02-03T15:19:39;9.90;44.40
439;DHT22;206;48.782;9.252;2023-02-03T15:22:40;9.90;44.60
439;DHT22;206;48.782;9.252;2023-02-03T15:25:16;9.80;45.20
439;DHT22;206;48.782;9.252;2023-02-03T15:27:42;9.80;45.20
439;DHT22;206;48.782;9.252;2023-02-03T15:30:23;9.80;45.60
439;DHT22;206;48.782;9.252;2023-02-03T15:33:13;9.70;46.10
439;DHT22;206;48.782;9.252;2023-02-03T15:35:41;9.60;47.20
439;DHT22;206;48.782;9.252;2023-02-03T15:38:13;9.60;48.00
439;DHT22;206;48.782;9.252;2023-02-03T15:40:52;9.60;47.60
439;DHT22;206;48.782;9.252;2023-02-03T15:43:30;9.60;48.70
439;DHT22;206;48.782;9.252;2023-02-03T15:46:17;9.60;48.90
439;DHT22;206;48.782;9.252;2023-02-03T15:48:50;9.60;49.20
439;DHT22;206;48.782;9.252;2023-02-03T15:51:24;9.70;49.30
439;DHT22;206;48.782;9.252;2023-02-03T15:54:01;9.70;49.30
439;DHT22;206;48.782;9.252;2023-02-03T15:56:37;9.80;48.40
439;DHT22;206;48.782;9.252;2023-02-03T15:59:14;9.90;48.20
439;DHT22;206;48.782;9.252;2023-02-03T16:01:43;9.90;47.50
439;DHT22;206;48.782;9.252;2023-02-03T16:04:10;9.90;47.50
439;DHT22;206;48.782;9.252;2023-02-03T16:06:37;9.90;47.50
439;DHT22;206;48.782;9.252;2023-02-03T16:09:06;9.90;47.40
439;DHT22;206;48.782;9.252;2023-02-03T16:11:38;10.00;46.50
439;DHT22;206;48.782;9.252;2023-02-03T16:14:06;10.00;46.20
439;DHT22;206;48.782;9.252;2023-02-03T16:16:40;10.00;46.00
439;DHT22;206;48.782;9.252;2023-02-03T16:19:16;10.00;46.40
439;DHT22;206;48.782;9.252;2023-02-03T16:24:43;9.90;48.60
439;DHT22;206;48.782;9.252;2023-02-03T16:29:52;9.80;49.90
439;DHT22;206;48.782;9.252;2023-02-03T16:32:36;9.70;50.40
439;DHT22;206;48.782;9.252;2023-02-03T16:35:21;9.60;51.60
439;DHT22;206;48.782;9.252;2023-02-03T16:38:16;9.60;52.70
439;DHT22;206;48.782;9.252;2023-02-03T16:41:15;9.60;53.20
439;DHT22;206;48.782;9.252;2023-02-03T16:44:00;9.60;53.50
439;DHT22;206;48.782;9.252;2023-02-03T16:46:44;9.50;53.90
439;DHT22;206;48.782;9.252;2023-02-03T16:49:29;9.50;54.60
439;DHT22;206;48.782;9.252;2023-02-03T16:52:13;9.50;54.20
439;DHT22;206;48.782;9.252;2023-02-03T16:54:39;9.60;54.30
439;DHT22;206;48.782;9.252;2023-02-03T16:57:04;9.60;54.00
439;DHT22;206;48.782;9.252;2023-02-03T16:59:30;9.60;54.00
439;DHT22;206;48.782;9.252;2023-02-03T17:01:55;9.60;53.70
439;DHT22;206;48.782;9.252;2023-02-03T17:04:21;9.60;54.00
439;DHT22;206;48.782;9.252;2023-02-03T17:06:47;9.70;54.10
439;DHT22;206;48.782;9.252;2023-02-03T17:09:16;9.70;54.10
439;DHT22;206;48.782;9.252;2023-02-03T17:11:47;9.70;54.10
439;DHT22;206;48.782;9.252;2023-02-03T17:14:12;9.70;54.10
439;DHT22;206;48.782;9.252;2023-02-03T17:16:39;9.70;54.40
439;DHT22;206;48.782;9.252;2023-02-03T17:19:08;9.70;54.10
439;DHT22;206;48.782;9.252;2023-02-03T17:21:34;9.70;54.30
439;DHT22;206;48.782;9.252;2023-02-03T17:23:59;9.80;54.10
439;DHT22;206;48.782;9.252;2023-02-03T17:26:25;9.80;54.10
439;DHT22;206;48.782;9.252;2023-02-03T17:28:51;9.70;54.10
439;DHT22;206;48.782;9.252;2023-02-03T17:31:18;9.70;54.10
439;DHT22;206;48.782;9.252;2023-02-03T17:33:45;9.80;54.10
439;DHT22;206;48.782;9.252;2023-02-03T17:36:16;9.70;54.10
439;DHT22;206;48.782;9.252;2023-02-03T17:38:44;9.70;53.50
439;DHT22;206;48.782;9.252;2023-02-03T17:41:13;9.70;53.60
439;DHT22;206;48.782;9.252;2023-02-03T17:43:39;9.70;53.20
439;DHT22;206;48.782;9.252;2023-02-03T17:46:05;9.70;53.50
439;DHT22;206;48.782;9.252;2023-02-03T17:48:31;9.70;53.20
439;DHT22;206;48.782;9.252;2023-02-03T17:51:17;9.70;53.40
439;DHT22;206;48.782;9.252;2023-02-03T17:53:45;9.60;53.40
439;DHT22;206;48.782;9.252;2023-02-03T17:56:13;9.60;53.50
439;DHT22;206;48.782;9.252;2023-02-03T17:58:40;9.70;52.90
439;DHT22;206;48.782;9.252;2023-02-03T18:01:10;9.70;53.70
439;DHT22;206;48.782;9.252;2023-02-03T18:06:09;9.70;54.10
439;DHT22;206;48.782;9.252;2023-02-03T18:08:35;9.70;53.70
439;DHT22;206;48.782;9.252;2023-02-03T18:11:00;9.80;52.90
439;DHT22;206;48.782;9.252;2023-02-03T18:13:27;9.80;52.30
439;DHT22;206;48.782;9.252;2023-02-03T18:15:56;9.80;52.20
439;DHT22;206;48.782;9.252;2023-02-03T18:18:21;9.80;52.40
439;DHT22;206;48.782;9.252;2023-02-03T18:20:47;9.70;52.70
439;DHT22;206;48.782;9.252;2023-02-03T18:23:13;9.80;52.20
439;DHT22;206;48.782;9.252;2023-02-03T18:25:39;9.80;52.20
439;DHT22;206;48.782;9.252;2023-02-03T18:28:04;9.70;52.40
439;DHT22;206;48.782;9.252;2023-02-03T18:30:30;9.80;52.60
439;DHT22;206;48.782;9.252;2023-02-03T18:32:55;9.80;52.50
439;DHT22;206;48.782;9.252;2023-02-03T18:35:21;9.80;52.60
439;DHT22;206;48.782;9.252;2023-02-03T18:37:48;9.70;52.70
439;DHT22;206;48.782;9.252;2023-02-03T18:40:14;9.80;53.20
439;DHT22;206;48.782;9.252;2023-02-03T18:42:39;9.80;53.10
439;DHT22;206;48.782;9.252;2023-02-03T18:45:05;9.80;53.10
439;DHT22;206;48.782;9.252;2023-02-03T18:47:32;9.80;54.00
439;DHT22;206;48.782;9.252;2023-02-03T18:49:58;9.80;54.10
439;DHT22;206;48.782;9.252;2023-02-03T18:52:23;9.80;54.10
439;DHT22;206;48.782;9.252;2023-02-03T18:54:49;9.90;54.20
439;DHT22;206;48.782;9.252;2023-02-03T18:57:16;9.80;54.10
439;DHT22;206;48.782;9.252;2023-02-03T18:59:42;9.80;54.50
439;DHT22;206;48.782;9.252;2023-02-03T19:02:11;9.80;55.30
439;DHT22;206;48.782;9.252;2023-02-03T19:04:36;9.80;55.70
439;DHT22;206;48.782;9.252;2023-02-03T19:07:03;9.80;56.40
439;DHT22;206;48.782;9.252;2023-02-03T19:09:28;9.80;56.10
439;DHT22;206;48.782;9.252;2023-02-03T19:11:54;9.80;56.10
439;DHT22;206;48.782;9.252;2023-02-03T19:14:23;9.80;56.30
439;DHT22;206;48.782;9.252;2023-02-03T19:16:49;9.80;56.00
439;DHT22;206;48.782;9.252;2023-02-03T19:19:18;9.80;55.90
439;DHT22;206;48.782;9.252;2023-02-03T19:21:44;9.80;56.30
439;DHT22;206;48.782;9.252;2023-02-03T19:24:11;9.80;56.60
439;DHT22;206;48.782;9.252;2023-02-03T19:26:38;9.90;56.50
439;DHT22;206;48.782;9.252;2023-02-03T19:29:04;10.00;54.60
439;DHT22;206;48.782;9.252;2023-02-03T19:31:29;10.00;54.30
439;DHT22;206;48.782;9.252;2023-02-03T19:33:57;9.90;55.90
439;DHT22;206;48.782;9.252;2023-02-03T19:36:24;9.90;56.40